Home Latest Filings Latest Buys Latest Sells Institutions Derivatives Hot Buys Data Screener Email Alerts Insider Charts
MTOR - As of  09/19/19, 11:39:41 PM:   104 Insider Transactions.

Sector: Consumer Goods    Industry: Auto Parts
Prev Close:$7.61  Avg Vol(3m): 959,089  P/E: 14.70  EPS: 0.52

Email this page to a friend.    Institutional Transactions for MTOR

                Buy: Blue    Sell: Red
Non-meaningful transactions (gifts, grants, etc.) are automatically filtered out for quicker actions.
Buy(P) /
Sell(S)
P/S date Filed Date Company Symbol Insider Relationship Share Amt. Unit Price Total Proceeds Shares Owned Return(1m) Details
S 2019-08-16 2019-08-19 17:34:02.0 MERITOR, INC. MTOR Miller Boise April officer (SVP, CLO & Corp Sec) 31,830 $17.38 $553,107.00 40,829 view
P 2019-05-14 2019-05-16 09:09:02.0 MERITOR INC MTOR Boehm Rodger L director 2,000 $21.00 $42,000.00 15,541 view
S 2019-05-02 2019-05-03 17:45:25.0 MERITOR INC MTOR Villavarayan Chris officer (SVP & Pres., Global Truck) 21,723 $23.21 $504,124.00 27,216 view
S 2019-02-19 2019-02-21 17:43:31.0 MERITOR INC MTOR Heffron Timothy J. officer (SVP, HR & CIO) 36,940 $22.00 $812,680.00 31,741 view
S 2019-02-15 2019-02-19 18:25:20.0 MERITOR INC MTOR Villavarayan Chris officer (SVP & Pres., Global Truck) 34,246 $21.31 $729,950.00 0 view
S 2019-02-06 2019-02-07 17:07:19.0 MERITOR INC MTOR Plomin Joseph A. officer (SVP & Pres. Aftmkt, Ind & Qlty) 10,000 $20.63 $206,256.00 111,144 view
S 2019-02-04 2019-02-04 16:59:22.0 MERITOR INC MTOR Bialy Paul officer (VP, Controller & PAO) 1,148 $20.93 $24,027.60 27,647 view
S 2018-12-03 2018-12-04 18:34:54.0 MERITOR INC MTOR Villavarayan Chris officer (SVP & Pres., Global Truck) 18,815 $16.07 $302,357.00 42,003 view
S 2018-12-03 2018-12-04 18:34:07.0 MERITOR INC MTOR Plomin Joseph A. officer (SVP & Pres., A&T and Quality) 36,727 $16.09 $590,985.00 122,707 view
S 2018-12-03 2018-12-04 18:34:02.0 MERITOR INC MTOR Nowlan Kevin officer (SVP & Pres., T&C and CFO) 58,035 $16.09 $934,021.00 114,815 view
S 2018-12-03 2018-12-04 18:32:45.0 MERITOR INC MTOR Heffron Timothy J. officer (SVP, HR & CIO) 30,043 $16.09 $483,494.00 68,681 view
S 2018-12-03 2018-12-04 18:32:18.0 MERITOR INC MTOR Craig Jeffrey A director officer (CEO & President) 242,358 $16.07 $3,894,060.00 631,316 view
S 2018-12-03 2018-12-04 18:31:53.0 MERITOR INC MTOR Bialy Paul officer (VP, Controller & PAO) 2,697 $16.06 $43,315.40 25,445 view
S 2018-08-02 2018-08-03 16:23:41.0 MERITOR INC MTOR Craig Jeffrey A director officer (CEO & President) 34,678 $21.84 $757,284.00 327,043 view
S 2018-02-26 2018-02-27 18:23:29.0 MERITOR INC MTOR Plomin Joseph A. officer (SVP & Pres., A&T and Quality) 15,826 $25.64 $405,856.00 77,989 view
S 2018-02-15 2018-02-20 18:05:32.0 MERITOR INC MTOR Craig Jeffrey A director officer (CEO & President) 155,000 $26.21 $4,062,550.00 270,310 view
S 2018-02-02 2018-02-06 18:08:43.0 MERITOR INC MTOR Villavarayan Chris officer (SVP & Pres., Americas) 18,000 $28.61 $515,009.00 18,954 view
S 2018-02-02 2018-02-06 18:07:40.0 MERITOR INC MTOR Nowlan Kevin officer (SVP & CFO) 50,000 $29.05 $1,452,420.00 43,450 view
S 2018-02-02 2018-02-06 18:06:15.0 MERITOR INC MTOR Craig Jeffrey A director officer (CEO & President) 50,000 $29.12 $1,455,900.00 427,310 view
S 2017-12-13 2017-12-15 17:00:43.0 MERITOR INC MTOR Villavarayan Chris officer (SVP & Pres., Americas) 4,000 $23.53 $94,112.80 36,954 view
S 2017-12-11 2017-12-13 18:15:24.0 MERITOR INC MTOR Craig Jeffrey A director officer (CEO & President) 22,368 $23.38 $523,009.00 477,310 view
S 2017-12-11 2017-12-11 16:13:23.0 MERITOR INC MTOR Heffron Timothy J. officer (SVP, HR & CIO) 18,696 $23.46 $438,670.00 31,741 view
S 2017-12-04 2017-12-05 16:19:48.0 MERITOR INC MTOR Villavarayan Chris officer (SVP & Pres., Americas) 14,053 $24.64 $346,210.00 61,355 view
S 2017-12-04 2017-12-05 16:19:37.0 MERITOR INC MTOR Speed Robert H. officer (SVP & Pres., Aftmkt, CPO) 12,767 $24.64 $314,588.00 44,631 view
S 2017-12-04 2017-12-05 16:19:14.0 MERITOR INC MTOR Plomin Joseph A. officer (SVP & Pres., International) 14,326 $24.64 $352,948.00 94,865 view
S 2017-12-04 2017-12-05 16:19:03.0 MERITOR INC MTOR Heffron Timothy J. officer (SVP, HR & CIO) 16,318 $24.64 $402,023.00 50,437 view
S 2017-12-04 2017-12-05 16:19:03.0 MERITOR INC MTOR Nowlan Kevin officer (SVP & CFO) 17,977 $24.64 $442,863.00 93,450 view
S 2017-12-04 2017-12-05 16:17:51.0 MERITOR INC MTOR Craig Jeffrey A director officer (CEO & President) 67,005 $24.63 $1,650,550.00 499,678 view
S 2017-12-04 2017-12-05 16:17:40.0 MERITOR INC MTOR Bialy Paul officer (VP, Controller & PAO) 2,191 $24.64 $53,975.30 19,009 view
S 2017-02-07 2017-10-16 18:30:02.0 MERITOR INC MTOR Plomin Joseph A. officer (SVP & Pres., International) 9,070 $15.41 $139,773.00 79,039 view
S 2017-08-08 2017-08-10 17:07:10.0 MERITOR INC MTOR Speed Robert H. officer (SVP & Pres., Aftmkt, CPO) 4,192 $19.23 $80,617.20 30,000 view
P 2017-05-08 2017-05-09 15:29:46.0 MERITOR INC MTOR NEWLIN WILLIAM R director 5,934 $16.84 $99,932.70 250,561 N/A view
S 2017-03-02 2017-03-06 18:48:42.0 MERITOR INC MTOR Nowlan Kevin officer (SVP & CFO) 28,810 $16.58 $477,572.00 72,856 N/A view
S 2017-02-09 2017-02-13 12:53:28.0 MERITOR INC MTOR EVANS IVOR J director 6,750 $15.71 $106,070.00 409,087 N/A view
S 2017-02-03 2017-02-07 12:12:02.0 MERITOR INC MTOR Heffron Timothy J. officer (SVP, HR & CIO) 6,000 $15.07 $90,420.00 31,741 N/A view
S 2017-02-03 2017-02-07 12:06:27.0 MERITOR INC MTOR EVANS IVOR J director 160,925 $15.00 $2,413,960.00 415,837 N/A view
S 2017-02-02 2017-02-03 14:14:16.0 MERITOR INC MTOR Villavarayan Chris officer (SVP & Pres., Americas) 5,260 $15.17 $79,777.90 45,256 N/A view
S 2017-02-02 2017-02-03 14:13:40.0 MERITOR INC MTOR Speed Robert H. officer (SVP & Pres., Aftmkt, CPO) 3,600 $15.15 $54,558.00 34,192 N/A view
S 2017-02-02 2017-02-03 14:13:37.0 MERITOR INC MTOR Plomin Joseph A. officer (SVP & Pres., International) 970 $15.17 $14,711.40 88,109 N/A view
S 2017-02-02 2017-02-03 14:13:17.0 MERITOR INC MTOR Heffron Timothy J. officer (SVP, HR & CIO) 2,800 $15.15 $42,425.90 37,741 N/A view
S 2017-01-03 2017-01-04 14:03:10.0 MERITOR INC MTOR Nowlan Kevin officer (SVP & CFO) 5,250 $12.70 $66,680.80 101,666 N/A view
S 2016-12-12 2016-12-13 15:33:38.0 MERITOR INC MTOR Bridges Victoria J director 3,868 $12.95 $50,085.60 105,211 N/A view
S 2016-12-02 2016-12-05 14:44:05.0 MERITOR INC MTOR Bialy Paul officer (VP, Controller & PAO) 2,740 $12.44 $34,082.90 14,333 N/A view
S 2016-12-02 2016-12-05 14:40:57.0 MERITOR INC MTOR EVANS IVOR J director 238,077 $12.44 $2,962,440.00 336,758 N/A view
S 2016-12-02 2016-12-05 14:40:24.0 MERITOR INC MTOR Speed Robert H. officer (SVP & Pres., Aftmkt, CPO) 10,588 $12.44 $131,756.00 27,638 N/A view
S 2016-12-02 2016-12-05 14:40:02.0 MERITOR INC MTOR Plomin Joseph A. officer (SVP & Pres., International) 16,286 $12.45 $202,710.00 86,541 N/A view
S 2016-12-02 2016-12-05 14:39:45.0 MERITOR INC MTOR Villavarayan Chris officer (SVP & Pres., Americas) 10,586 $12.45 $131,766.00 35,284 N/A view
S 2016-12-02 2016-12-05 14:39:26.0 MERITOR INC MTOR Heffron Timothy J. officer (SVP, HR & CIO) 14,005 $12.45 $174,309.00 32,925 N/A view
S 2016-12-02 2016-12-05 14:38:57.0 MERITOR INC MTOR Craig Jeffrey A director officer (CEO & President) 108,780 $12.44 $1,353,710.00 420,866 N/A view
S 2016-12-02 2016-12-05 14:38:24.0 MERITOR INC MTOR Nowlan Kevin officer (SVP & CFO) 22,796 $12.45 $283,714.00 91,916 N/A view
P 2016-05-19 2016-05-20 14:33:05.0 MERITOR INC MTOR LYONS WILLIAM J director 2,799 $8.01 $22,420.00 59,927 N/A view
S 2015-12-02 2015-12-03 12:14:06.0 MERITOR INC MTOR Villavarayan Chris officer (Pres., Americas) 1,510 $10.35 $15,629.30 13,383 N/A view
S 2015-12-02 2015-12-03 12:14:06.0 MERITOR INC MTOR Plomin Joseph A. officer (Pres., International) 4,323 $10.34 $44,703.30 52,852 N/A view
S 2015-12-02 2015-12-03 12:08:38.0 MERITOR INC MTOR Speed Robert H. officer (Pres., Aftmkt & Trailer, CPO) 1,132 $10.35 $11,711.70 5,739 N/A view
S 2015-12-02 2015-12-03 12:02:37.0 MERITOR INC MTOR Nowlan Kevin officer (Senior VP & CFO) 1,858 $10.35 $19,222.90 44,763 N/A view
S 2015-12-02 2015-12-03 12:00:29.0 MERITOR INC MTOR Heffron Timothy J. officer (VP, HR & CIO) 1,889 $10.34 $19,541.30 3,951 N/A view
S 2015-12-02 2015-12-03 11:56:31.0 MERITOR INC MTOR Craig Jeffrey A director officer (CEO & President) 19,496 $10.34 $201,606.00 301,145 N/A view
S 2015-12-02 2015-12-03 11:54:14.0 MERITOR INC MTOR Bialy Paul officer (VP, Controller & PAO) 2,655 $10.32 $27,394.80 8,680 N/A view
P 2015-02-09 2015-02-10 12:51:33.0 MERITOR INC MTOR LYONS WILLIAM J director 1,920 $13.71 $26,323.20 41,815 -0.36% view
P 2015-02-03 2015-02-04 15:59:02.0 MERITOR INC MTOR NEWLIN WILLIAM R director 18,670 $13.34 $249,022.00 215,373 8.41% view
S 2014-12-02 2014-12-03 16:36:39.0 MERITOR INC MTOR Craig Jeffrey A officer (President & COO) 34,400 $13.98 $480,998.00 360,342 -9.57% view
S 2014-12-02 2014-12-03 16:34:33.0 MERITOR INC MTOR Nowlan Kevin officer (Senior VP & CFO) 3,200 $13.98 $44,750.10 76,365 -9.55% view
P 2014-08-28 2014-08-29 12:27:40.0 MERITOR INC MTOR LYONS WILLIAM J director 1,868 $13.59 $25,393.60 33,330 -16.07% view
P 2014-05-06 2014-05-08 11:57:08.0 MERITOR INC MTOR NEWLIN WILLIAM R director 7,299 $13.60 $99,270.00 50,625 8.08% view
P 2014-05-06 2014-05-08 11:57:08.0 MERITOR INC MTOR NEWLIN WILLIAM R director 14,598 $13.60 $198,540.00 205,425 8.08% view
S 2013-12-03 2013-12-03 14:47:59.0 MERITOR INC MTOR Novak Barbara Griffin officer (VP and Corp Sec) 1,746 $7.74 $13,513.90 46,017 -29.72% view
S 2013-12-03 2013-12-03 14:42:06.0 MERITOR INC MTOR Nowlan Kevin officer (Senior VP CFO) 1,091 $7.75 $8,454.60 49,281 -29.56% view
S 2013-12-03 2013-12-03 14:36:37.0 MERITOR INC MTOR Craig Jeffrey A officer (Sr. VP/Pres. Comm.Truck/Indus) 8,729 $7.73 $67,487.40 355,441 -29.86% view
S 2013-12-03 2013-12-03 14:28:30.0 MERITOR INC MTOR BAKER VERNON G II officer (Senior VP and General Counsel) 4,848 $7.75 $37,552.10 260,428 -29.62% view
P 2013-12-02 2013-12-02 16:24:28.0 MERITOR INC MTOR LYONS WILLIAM J director 3,269 $7.82 $25,547.20 16,034 30.26% view
P 2013-11-22 2013-11-22 13:39:59.0 MERITOR INC MTOR NEWLIN WILLIAM R director 13,850 $7.19 $99,546.90 180,975 13.53% view
P 2013-11-21 2013-11-21 13:55:45.0 MERITOR INC MTOR NEWLIN WILLIAM R director 14,044 $7.12 $100,013.00 43,326 14.58% view
P 2013-11-14 2013-11-15 09:37:42.0 MERITOR INC MTOR NEWLIN WILLIAM R director 29,282 $6.70 $196,189.00 29,282 17.16% view
P 2013-08-12 2013-08-13 09:12:32.0 MERITOR INC MTOR LYONS WILLIAM J director 1,050 $7.68 $8,063.48 12,765 6.26% view
P 2013-08-09 2013-08-12 10:07:51.0 MERITOR INC MTOR LYONS WILLIAM J director 2,000 $7.65 $15,297.60 11,715 6.55% view
S 2012-12-04 2012-12-05 10:57:48.0 MERITOR INC MTOR Nowlan Kevin officer (Controller) 2,347 $4.37 $10,251.90 50,372 -21.33% view
S 2012-12-04 2012-12-05 10:56:22.0 MERITOR INC MTOR Novak Barbara Griffin officer (VP&Corporate Secretary) 3,740 $4.37 $16,345.70 47,763 -21.27% view
S 2012-12-04 2012-12-05 10:54:28.0 MERITOR INC MTOR MCCLURE CHARLES G director officer (Chairman, CEO and President) 71,695 $4.37 $313,472.00 1,307,270 -21.22% view
S 2012-12-04 2012-12-05 10:53:25.0 MERITOR INC MTOR Craig Jeffrey A officer (Sr.VP, CFO) 24,770 $4.37 $108,297.00 364,170 -21.22% view
S 2012-12-04 2012-12-05 10:52:02.0 MERITOR INC MTOR Bowes Timothy Earl Joseph officer (VP&Pres, Commercial Truck) 6,362 $4.37 $27,808.30 105,041 -21.25% view
S 2012-12-04 2012-12-05 10:49:01.0 MERITOR INC MTOR BAKER VERNON G II officer (Senior VP and General Counsel) 13,816 $4.37 $60,399.40 265,276 -21.23% view
S 2012-04-27 2012-04-27 15:41:16.0 MERITOR INC MTOR Nowlan Kevin officer (Controller) 2,491 $6.81 $16,965.00 46,879 20.27% view
S 2012-01-09 2012-01-09 15:52:29.0 MERITOR INC MTOR MCCLURE CHARLES G director officer (Chairman, CEO and President) 14,598 $6.13 $89,531.00 1,199,050 -28.32% view
S 2012-01-04 2012-01-05 14:59:15.0 MERITOR INC MTOR Novak Barbara Griffin officer (VP&Corporate Secretary) 4,167 $5.90 $24,571.50 42,153 -27.02% view
S 2012-01-05 2012-01-05 14:57:49.0 MERITOR INC MTOR MCCLURE CHARLES G director officer (Chairman, CEO and President) 934 $5.78 $5,396.28 1,213,650 -29.64% view
S 2012-01-04 2012-01-05 14:57:49.0 MERITOR INC MTOR MCCLURE CHARLES G director officer (Chairman, CEO and President) 107,564 $5.77 $621,032.00 1,214,580 -29.73% view
S 2012-01-05 2012-01-05 14:33:57.0 MERITOR INC MTOR Lehmann Mary A officer (Sr. VP, Treasury and Corporate) 33 $5.81 $191.73 193,534 -28.92% view
S 2012-01-04 2012-01-05 14:33:57.0 MERITOR INC MTOR Lehmann Mary A officer (Sr. VP, Treasury and Corporate) 22,673 $5.83 $132,252.00 193,567 -28.41% view
S 2012-01-05 2012-01-05 14:20:31.0 MERITOR INC MTOR MCCLURE CHARLES G director officer (Chairman, CEO and President) 934 $5.78 $5,396.28 1,213,650 -29.64% view
S 2012-01-04 2012-01-05 14:13:19.0 MERITOR INC MTOR Novak Barbara Griffin officer (VP&Corporate Secretary) 4,167 $5.90 $24,571.50 42,153 -27.02% view
S 2012-01-05 2012-01-05 14:09:05.0 MERITOR INC MTOR Craig Jeffrey A officer (Sr.VP, CFO) 151 $5.79 $873.84 328,190 -29.43% view
S 2012-01-04 2012-01-05 14:09:05.0 MERITOR INC MTOR Craig Jeffrey A officer (Sr.VP, CFO) 37,440 $5.81 $217,369.00 328,341 -29.01% view
S 2012-01-04 2012-01-05 14:01:28.0 MERITOR INC MTOR Nowlan Kevin officer (Controller) 5,200 $5.90 $30,658.70 49,370 -27.04% view
S 2012-01-04 2012-01-05 13:57:29.0 MERITOR INC MTOR Mejaly Joseph Leonard officer (VP&Pres, Aftermarket &Trailer) 5,200 $5.90 $30,656.60 65,935 -27.05% view
S 2012-01-05 2012-01-05 13:52:26.0 MERITOR INC MTOR Lehmann Mary A officer (Sr. VP, Treasury and Corporate) 33 $5.81 $191.73 193,534 -28.92% view
S 2012-01-03 2012-01-05 13:52:26.0 MERITOR INC MTOR Lehmann Mary A officer (Sr. VP, Treasury and Corporate) 22,673 $5.83 $132,252.00 193,567 -28.41% view
S 2012-01-04 2012-01-05 13:46:49.0 MERITOR INC MTOR Bowes Timothy Earl Joseph officer (VP&Pres, Commercial Truck) 9,662 $5.90 $56,972.00 83,403 -27.02% view
S 2012-01-05 2012-01-05 13:38:09.0 MERITOR INC MTOR BAKER VERNON G II officer (Senior VP and General Counsel) 256 $5.79 $1,481.47 251,052 -29.43% view
S 2012-01-04 2012-01-05 13:38:09.0 MERITOR INC MTOR BAKER VERNON G II officer (Senior VP and General Counsel) 20,842 $5.78 $120,375.00 251,308 -29.68% view
P 2011-11-18 2011-11-18 17:08:43.0 MERITOR INC MTOR NEWLIN WILLIAM R director 34,000 $5.32 $181,030.00 122,923 -0.46% view
P 2011-11-17 2011-11-17 16:40:43.0 MERITOR INC MTOR NEWLIN WILLIAM R director 38,000 $5.83 $221,681.00 88,923 -9.15% view
S 2011-09-12 2011-09-12 16:48:49.0 MERITOR INC MTOR Lehmann Mary A officer (Sr. VP, Treasury and Corporate) 3,525 $6.84 $24,099.70 167,380 -34.71% view
S 2011-07-26 2011-07-26 14:59:49.0 MERITOR INC MTOR MCCLURE CHARLES G director officer (Chairman, CEO and President) 65,503 $14.54 $952,158.00 1,037,130 47.51% view
S 2011-05-02 2011-05-02 12:33:12.0 MERITOR INC MTOR Craig Jeffrey A officer (Sr.VP, CFO) 5,026 $17.39 $87,393.60 268,061 10.92% view
* An * after P or S in the Buy/Sell column means the transaction was filed by the insider as open market, but it was marked as private transaction by insidercow's proprietary method
Enter Another Stock Symbol: